Olm, Luxembourg
Current Conditions -  °F | °C
As of 3:20 PM on Saturday 20 Dec 2014 (Local Time) from ELLX Reporting Station
Broken Clouds Broken Clouds  
Wind Chill: 32°   Ceiling: 2800
Heat Index: 41°   Visibility: 6mi
Dew Point: 37°   Wind: 17mph
Humidity: 87%   Direction: 280°W
Pressure: 30.21"   Gusts: NA
Location:  49.66°N, 6°E
Report Text: ELLX 201420Z 28015KT 240V310 9999 FEW020 BKN028 05/03 Q1023 NOSIG
Loading
Personal Weather Stations






























Interactive Weather Map New forecast layout! Learn more

10-Day Weather Forecast

Advertisements
Track Severe Weather on mobile